createdAt,value
2022-10-14T00:00:11.893Z,42.75
2022-10-14T00:01:11.875Z,43.58
2022-10-14T00:02:11.947Z,44.71
2022-10-14T00:03:11.855Z,43.88
2022-10-14T00:04:11.848Z,38.78
2022-10-14T00:05:11.848Z,38.96
2022-10-14T00:06:11.847Z,54.01
2022-10-14T00:07:11.859Z,40.72
2022-10-14T00:08:11.823Z,46.06
2022-10-14T00:09:11.814Z,43.29
2022-10-14T00:10:11.806Z,42.82
2022-10-14T00:11:11.797Z,48.89
2022-10-14T00:12:11.827Z,53.41
2022-10-14T00:13:11.782Z,53.18
2022-10-14T00:14:11.776Z,54.25
2022-10-14T00:15:11.781Z,54.84
2022-10-14T00:16:11.763Z,54.99
2022-10-14T00:17:12.060Z,50.66
2022-10-14T00:18:11.759Z,46.19
2022-10-14T00:19:12.738Z,39.14
2022-10-14T00:20:11.729Z,42.94
2022-10-14T00:21:11.723Z,42.84
2022-10-14T00:22:11.741Z,41.48
2022-10-14T00:23:11.708Z,40.64
2022-10-14T00:24:11.702Z,38.21
2022-10-14T00:25:11.699Z,38.23
2022-10-14T00:26:11.689Z,38.25
2022-10-14T00:27:11.712Z,41.54
2022-10-14T00:28:11.660Z,41.70
2022-10-14T00:29:12.669Z,44.55
2022-10-14T00:30:11.659Z,43.27
2022-10-14T00:31:11.652Z,43.84
2022-10-14T00:32:11.673Z,40.98
2022-10-14T00:33:11.637Z,42.47
2022-10-14T00:34:11.635Z,45.70
2022-10-14T00:35:11.622Z,43.51
2022-10-14T00:36:11.612Z,42.23
2022-10-14T00:37:11.629Z,46.75
2022-10-14T00:38:11.607Z,48.14
2022-10-14T00:39:11.591Z,39.00
2022-10-14T00:40:11.590Z,44.22
2022-10-14T00:41:11.582Z,51.19
2022-10-14T00:42:11.598Z,40.67
2022-10-14T00:43:11.564Z,49.68
2022-10-14T00:44:11.564Z,40.93
2022-10-14T00:45:11.549Z,48.25
2022-10-14T00:46:11.536Z,44.66
2022-10-14T00:47:11.558Z,39.05
2022-10-14T00:48:11.520Z,44.55
2022-10-14T00:49:11.512Z,41.43
2022-10-14T00:50:11.506Z,44.34
2022-10-14T00:51:11.505Z,43.85
2022-10-14T00:52:11.521Z,45.59
2022-10-14T00:53:11.488Z,51.98
2022-10-14T00:54:11.479Z,47.57
2022-10-14T00:55:11.474Z,42.45
2022-10-14T00:56:11.462Z,41.71
2022-10-14T00:57:11.489Z,44.15
2022-10-14T00:58:11.454Z,42.63
2022-10-14T00:59:11.437Z,44.98
2022-10-14T01:00:11.447Z,45.99
2022-10-14T01:01:11.497Z,45.42
2022-10-14T01:02:11.441Z,45.71
2022-10-14T01:03:11.403Z,39.55
2022-10-14T01:04:11.397Z,55.23
2022-10-14T01:05:11.393Z,45.38
2022-10-14T01:06:11.385Z,47.23
2022-10-14T01:07:11.403Z,45.38
2022-10-14T01:08:11.369Z,45.58
2022-10-14T01:09:11.357Z,41.81
2022-10-14T01:10:11.353Z,48.67
2022-10-14T01:11:11.345Z,37.77
2022-10-14T01:12:30.332Z,40.65
2022-10-14T01:13:13.329Z,46.77
2022-10-14T01:14:11.319Z,37.36
2022-10-14T01:15:11.311Z,48.85
2022-10-14T01:16:11.304Z,40.77
2022-10-14T01:17:11.323Z,43.71
2022-10-14T01:18:11.289Z,52.08
2022-10-14T01:19:11.277Z,54.27
2022-10-14T01:20:11.272Z,52.57
2022-10-14T01:21:11.269Z,52.86
2022-10-14T01:22:11.285Z,50.88
2022-10-14T01:23:11.251Z,44.45
2022-10-14T01:24:11.252Z,42.28
2022-10-14T01:25:11.239Z,44.41
2022-10-14T01:26:11.221Z,50.72
2022-10-14T01:27:11.251Z,44.90
2022-10-14T01:28:11.220Z,50.79
2022-10-14T01:29:11.220Z,44.27
2022-10-14T01:30:11.199Z,42.67
2022-10-14T01:31:11.193Z,52.10
2022-10-14T01:32:11.211Z,39.85
2022-10-14T01:33:11.182Z,43.21
2022-10-14T01:34:11.175Z,43.32
2022-10-14T01:35:11.157Z,38.58
2022-10-14T01:36:11.156Z,54.34
2022-10-14T01:37:11.173Z,45.07
2022-10-14T01:38:11.139Z,39.25
2022-10-14T01:39:11.130Z,41.44
2022-10-14T01:40:11.131Z,43.21
2022-10-14T01:41:11.110Z,46.35
2022-10-14T01:42:11.150Z,48.70
2022-10-14T01:43:11.097Z,45.46
2022-10-14T01:44:11.087Z,44.21
2022-10-14T01:45:11.079Z,55.14
2022-10-14T01:46:11.082Z,45.89
2022-10-14T01:47:11.094Z,37.64
2022-10-14T01:48:11.057Z,53.94
2022-10-14T01:49:11.044Z,43.47
2022-10-14T01:50:11.052Z,40.40
2022-10-14T01:51:11.038Z,39.92
2022-10-14T01:52:11.062Z,47.39
2022-10-14T01:53:11.020Z,43.22
2022-10-14T01:54:11.020Z,50.37
2022-10-14T01:55:11.005Z,42.05
2022-10-14T01:56:10.998Z,43.16
2022-10-14T01:57:11.012Z,51.11
2022-10-14T01:58:10.985Z,45.61
2022-10-14T01:59:10.973Z,47.75
2022-10-14T02:00:10.973Z,52.28
2022-10-14T02:01:10.963Z,44.40
2022-10-14T02:02:11.047Z,45.59
2022-10-14T02:03:10.948Z,48.12
2022-10-14T02:04:10.943Z,38.62
2022-10-14T02:05:10.927Z,41.91
2022-10-14T02:06:10.920Z,55.62
2022-10-14T02:07:10.947Z,45.08
2022-10-14T02:08:10.918Z,47.13
2022-10-14T02:09:10.899Z,43.00
2022-10-14T02:10:10.884Z,49.54
2022-10-14T02:11:10.881Z,53.50
2022-10-14T02:12:10.903Z,43.80
2022-10-14T02:13:10.869Z,52.07
2022-10-14T02:14:10.855Z,42.39
2022-10-14T02:15:10.856Z,44.31
2022-10-14T02:16:10.849Z,44.44
2022-10-14T02:17:10.857Z,39.23
2022-10-14T02:18:10.827Z,38.35
2022-10-14T02:19:10.839Z,38.24
2022-10-14T02:20:10.810Z,45.28
2022-10-14T02:21:10.811Z,39.33
2022-10-14T02:22:10.818Z,42.01
2022-10-14T02:23:10.797Z,43.38
2022-10-14T02:24:10.780Z,49.38
2022-10-14T02:25:10.776Z,46.21
2022-10-14T02:26:10.766Z,40.55
2022-10-14T02:27:10.781Z,46.66
2022-10-14T02:28:10.750Z,44.01
2022-10-14T02:29:10.745Z,40.74
2022-10-14T02:30:10.733Z,46.38
2022-10-14T02:31:10.729Z,50.59
2022-10-14T02:32:10.754Z,48.21
2022-10-14T02:33:10.719Z,50.74
2022-10-14T02:34:10.707Z,53.46
2022-10-14T02:35:10.698Z,52.99
2022-10-14T02:36:10.689Z,45.97
2022-10-14T02:37:10.711Z,50.79
2022-10-14T02:38:10.675Z,51.30
2022-10-14T02:39:10.671Z,43.00
2022-10-14T02:40:10.668Z,50.88
2022-10-14T02:41:10.651Z,45.20
2022-10-14T02:42:10.670Z,57.98
2022-10-14T02:43:10.639Z,50.69
2022-10-14T02:44:10.627Z,53.34
2022-10-14T02:45:10.616Z,53.01
2022-10-14T02:46:10.617Z,49.91
2022-10-14T02:47:10.636Z,49.96
2022-10-14T02:48:10.607Z,47.87
2022-10-14T02:49:10.601Z,46.91
2022-10-14T02:50:10.595Z,56.94
2022-10-14T02:51:10.584Z,52.38
2022-10-14T02:52:10.604Z,49.01
2022-10-14T02:53:10.572Z,47.01
2022-10-14T02:54:10.557Z,40.26
2022-10-14T02:55:10.546Z,50.83
2022-10-14T02:56:10.543Z,56.84
2022-10-14T02:57:10.560Z,50.61
2022-10-14T02:58:10.550Z,50.64
2022-10-14T02:59:10.518Z,55.60
2022-10-14T03:00:10.511Z,47.17
2022-10-14T03:01:10.509Z,48.75
2022-10-14T03:02:10.597Z,47.09
2022-10-14T03:03:10.504Z,40.23
2022-10-14T03:04:10.482Z,50.43
2022-10-14T03:05:10.467Z,42.31
2022-10-14T03:06:10.467Z,57.06
2022-10-14T03:07:10.478Z,45.17
2022-10-14T03:08:10.447Z,43.25
2022-10-14T03:09:10.444Z,49.16
2022-10-14T03:10:10.434Z,50.13
2022-10-14T03:11:10.424Z,48.28
2022-10-14T03:12:10.445Z,45.02
2022-10-14T03:13:10.406Z,50.96
2022-10-14T03:14:10.399Z,49.96
2022-10-14T03:15:10.398Z,53.33
2022-10-14T03:16:10.389Z,50.55
2022-10-14T03:17:10.405Z,51.26
2022-10-14T03:18:10.375Z,49.97
2022-10-14T03:19:10.358Z,53.37
2022-10-14T03:20:10.350Z,51.59
2022-10-14T03:21:10.355Z,53.23
2022-10-14T03:22:10.364Z,57.48
2022-10-14T03:23:10.329Z,48.99
2022-10-14T03:24:10.330Z,52.61
2022-10-14T03:25:10.317Z,55.59
2022-10-14T03:26:13.777Z,48.92
2022-10-14T03:27:11.324Z,52.93
2022-10-14T03:28:10.295Z,50.12
2022-10-14T03:29:10.288Z,53.10
2022-10-14T03:30:10.273Z,53.63
2022-10-14T03:31:10.268Z,45.09
2022-10-14T03:32:10.281Z,51.30
2022-10-14T03:33:14.297Z,53.52
2022-10-14T03:34:11.255Z,53.30
2022-10-14T03:35:10.233Z,54.02
2022-10-14T03:36:10.234Z,50.07
2022-10-14T03:37:10.254Z,53.12
2022-10-14T03:38:10.241Z,55.82
2022-10-14T03:39:10.324Z,54.77
2022-10-14T03:40:10.198Z,50.95
2022-10-14T03:41:10.190Z,49.50
2022-10-14T03:42:10.230Z,55.07
2022-10-14T03:43:10.169Z,53.78
2022-10-14T03:44:10.165Z,57.75
2022-10-14T03:45:10.161Z,53.79
2022-10-14T03:46:10.151Z,59.80
2022-10-14T03:47:10.144Z,54.10
2022-10-14T03:48:10.173Z,52.36
2022-10-14T03:49:10.126Z,44.88
2022-10-14T03:50:10.118Z,51.07
2022-10-14T03:51:10.110Z,51.05
2022-10-14T03:52:10.109Z,48.85
2022-10-14T03:53:10.122Z,48.84
2022-10-14T03:54:10.100Z,50.25
2022-10-14T03:55:10.087Z,59.56
2022-10-14T03:56:10.077Z,55.95
2022-10-14T03:57:10.071Z,49.12
2022-10-14T03:58:10.089Z,51.08
2022-10-14T03:59:10.051Z,50.79
2022-10-14T04:00:10.050Z,55.95
2022-10-14T04:01:10.041Z,51.37
2022-10-14T04:02:10.118Z,49.83
2022-10-14T04:03:10.057Z,49.66
2022-10-14T04:04:10.015Z,52.43
2022-10-14T04:05:10.018Z,52.23
2022-10-14T04:06:09.995Z,52.33
2022-10-14T04:07:09.989Z,59.37
2022-10-14T04:08:10.009Z,51.29
2022-10-14T04:09:42.488Z,54.58
2022-10-14T04:10:09.965Z,56.60
2022-10-14T04:11:09.963Z,55.90
2022-10-14T04:12:09.947Z,52.61
2022-10-14T04:13:09.969Z,53.90
2022-10-14T04:14:09.920Z,52.53
2022-10-14T04:15:10.932Z,50.37
2022-10-14T04:16:09.920Z,54.59
2022-10-14T04:17:09.918Z,59.00
2022-10-14T04:18:09.932Z,46.67
2022-10-14T04:19:09.897Z,53.21
2022-10-14T04:20:09.887Z,54.87
2022-10-14T04:21:09.882Z,60.00
2022-10-14T04:22:09.876Z,55.29
2022-10-14T04:23:09.897Z,50.25
2022-10-14T04:24:09.871Z,55.35
2022-10-14T04:25:09.854Z,51.99
2022-10-14T04:26:09.847Z,54.42
2022-10-14T04:27:09.839Z,50.26
2022-10-14T04:28:09.857Z,55.32
2022-10-14T04:29:09.817Z,57.22
2022-10-14T04:30:09.810Z,53.81
2022-10-14T04:31:09.805Z,55.43
2022-10-14T04:32:09.804Z,51.52
2022-10-14T04:33:09.821Z,55.73
2022-10-14T04:34:09.790Z,54.14
2022-10-14T04:35:09.780Z,53.31
2022-10-14T04:36:09.769Z,51.16
2022-10-14T04:37:09.757Z,49.33
2022-10-14T04:38:09.783Z,55.36
2022-10-14T04:39:09.745Z,57.79
2022-10-14T04:40:09.744Z,50.86
2022-10-14T04:41:09.732Z,56.20
2022-10-14T04:42:09.725Z,60.65
2022-10-14T04:43:09.738Z,55.87
2022-10-14T04:44:09.708Z,54.63
2022-10-14T04:45:09.699Z,53.72
2022-10-14T04:46:09.698Z,58.85
2022-10-14T04:47:09.694Z,56.14
2022-10-14T04:48:09.723Z,55.79
2022-10-14T04:49:09.670Z,56.31
2022-10-14T04:50:09.672Z,51.56
2022-10-14T04:51:09.661Z,50.52
2022-10-14T04:52:09.653Z,57.57
2022-10-14T04:53:13.418Z,59.60
2022-10-14T04:54:10.633Z,53.71
2022-10-14T04:55:09.627Z,56.19
2022-10-14T04:56:09.619Z,58.65
2022-10-14T04:57:09.611Z,57.09
2022-10-14T04:58:09.635Z,55.36
2022-10-14T04:59:09.630Z,54.76
2022-10-14T05:00:09.595Z,55.73
2022-10-14T05:01:09.582Z,54.87
2022-10-14T05:02:09.637Z,55.69
2022-10-14T05:03:09.567Z,61.28
2022-10-14T05:04:09.588Z,56.09
2022-10-14T05:05:09.550Z,55.77
2022-10-14T05:06:09.559Z,55.78
2022-10-14T05:07:09.537Z,60.86
2022-10-14T05:08:09.532Z,55.42
2022-10-14T05:09:09.558Z,58.87
2022-10-14T05:10:09.530Z,53.30
2022-10-14T05:11:09.515Z,55.24
2022-10-14T05:12:09.512Z,54.19
2022-10-14T05:13:09.496Z,58.63
2022-10-14T05:14:09.574Z,55.24
2022-10-14T05:15:09.479Z,55.36
2022-10-14T05:16:09.476Z,55.84
2022-10-14T05:17:09.469Z,57.41
2022-10-14T05:18:09.484Z,56.64
2022-10-14T05:19:09.450Z,57.00
2022-10-14T05:20:09.445Z,56.46
2022-10-14T05:21:09.431Z,57.01
2022-10-14T05:22:09.431Z,54.41
2022-10-14T05:23:09.448Z,53.84
2022-10-14T05:24:09.408Z,53.41
2022-10-14T05:25:09.409Z,53.17
2022-10-14T05:26:09.407Z,54.62
2022-10-14T05:27:09.390Z,56.04
2022-10-14T05:28:09.412Z,55.89
2022-10-14T05:29:09.375Z,53.83
2022-10-14T05:30:09.365Z,57.88
2022-10-14T05:31:09.374Z,57.13
2022-10-14T05:32:09.372Z,56.25
2022-10-14T05:33:09.370Z,57.67
2022-10-14T05:34:09.339Z,57.32
2022-10-14T05:35:09.325Z,51.92
2022-10-14T05:36:09.323Z,57.36
2022-10-14T05:37:09.311Z,57.48
2022-10-14T05:38:09.336Z,56.53
2022-10-14T05:39:09.293Z,58.41
2022-10-14T05:40:09.292Z,56.68
2022-10-14T05:41:09.277Z,57.89
2022-10-14T05:42:09.272Z,60.95
2022-10-14T05:43:09.295Z,54.89
2022-10-14T05:44:09.263Z,57.01
2022-10-14T05:45:09.250Z,52.95
2022-10-14T05:46:09.249Z,63.13
2022-10-14T05:47:09.246Z,58.19
2022-10-14T05:48:09.226Z,55.17
2022-10-14T05:49:09.246Z,59.23
2022-10-14T05:50:09.217Z,53.71
2022-10-14T05:51:09.204Z,55.99
2022-10-14T05:52:09.197Z,54.59
2022-10-14T05:53:09.185Z,52.08
2022-10-14T05:54:09.213Z,51.98
2022-10-14T05:55:09.172Z,57.74
2022-10-14T05:56:09.175Z,53.36
2022-10-14T05:57:09.174Z,53.04
2022-10-14T05:58:09.153Z,52.12
2022-10-14T05:59:09.206Z,56.46
2022-10-14T06:00:09.135Z,59.14
2022-10-14T06:01:09.142Z,52.98
2022-10-14T06:02:09.118Z,59.69
2022-10-14T06:03:09.169Z,53.50
2022-10-14T06:04:09.126Z,50.89
2022-10-14T06:05:09.095Z,54.90
2022-10-14T06:06:09.084Z,55.21
2022-10-14T06:07:09.080Z,56.46
2022-10-14T06:08:09.063Z,52.30
2022-10-14T06:09:11.528Z,58.58
2022-10-14T06:10:10.058Z,55.21
2022-10-14T06:11:09.050Z,57.53
2022-10-14T06:12:09.040Z,55.02
2022-10-14T06:13:09.035Z,54.15
2022-10-14T06:14:09.053Z,56.24
2022-10-14T06:15:09.016Z,61.33
2022-10-14T06:16:09.007Z,55.49
2022-10-14T06:17:09.001Z,57.89
2022-10-14T06:18:08.996Z,54.61
2022-10-14T06:19:09.019Z,57.44
2022-10-14T06:20:08.984Z,56.18
2022-10-14T06:21:08.976Z,55.92
2022-10-14T06:22:08.970Z,57.93
2022-10-14T06:23:08.958Z,55.52
2022-10-14T06:24:08.980Z,56.11
2022-10-14T06:25:08.947Z,54.25
2022-10-14T06:26:08.956Z,54.40
2022-10-14T06:27:08.934Z,55.50
2022-10-14T06:28:08.919Z,54.49
2022-10-14T06:29:08.934Z,56.07
2022-10-14T06:30:09.909Z,56.44
2022-10-14T06:31:08.903Z,52.96
2022-10-14T06:32:08.886Z,56.73
2022-10-14T06:33:08.890Z,56.32
2022-10-14T06:34:08.905Z,56.42
2022-10-14T06:35:08.864Z,55.72
2022-10-14T06:36:08.859Z,54.58
2022-10-14T06:37:08.853Z,55.65
2022-10-14T06:38:08.856Z,56.80
2022-10-14T06:39:08.876Z,57.39
2022-10-14T06:40:08.837Z,58.19
2022-10-14T06:41:08.828Z,56.31
2022-10-14T06:42:12.925Z,57.91
2022-10-14T06:43:09.811Z,59.32
2022-10-14T06:44:08.827Z,57.19
2022-10-14T06:45:08.791Z,56.08
2022-10-14T06:46:08.781Z,57.99
2022-10-14T06:47:08.781Z,56.29
2022-10-14T06:48:08.768Z,55.07
2022-10-14T06:49:08.791Z,56.90
2022-10-14T06:50:08.751Z,56.91
2022-10-14T06:51:08.744Z,57.14
2022-10-14T06:52:08.741Z,57.79
2022-10-14T06:53:08.752Z,55.29
2022-10-14T06:54:08.745Z,54.04
2022-10-14T06:55:08.713Z,56.90
2022-10-14T06:56:08.708Z,59.27
2022-10-14T06:57:08.694Z,57.71
2022-10-14T06:58:08.698Z,55.76
2022-10-14T06:59:08.716Z,53.11
2022-10-14T07:00:08.675Z,58.44
2022-10-14T07:01:08.687Z,51.09
2022-10-14T07:02:08.709Z,55.82
2022-10-14T07:03:08.660Z,58.85
2022-10-14T07:04:08.635Z,55.61
2022-10-14T07:05:08.662Z,54.12
2022-10-14T07:06:08.616Z,51.88
2022-10-14T07:07:08.616Z,56.31
2022-10-14T07:08:11.294Z,54.56
2022-10-14T07:09:09.600Z,56.16
2022-10-14T07:10:08.622Z,55.73
2022-10-14T07:11:08.584Z,53.10
2022-10-14T07:12:08.575Z,54.36
2022-10-14T07:13:08.578Z,56.39
2022-10-14T07:14:08.562Z,53.66
2022-10-14T07:15:08.581Z,54.25
2022-10-14T07:16:08.546Z,55.09
2022-10-14T07:17:08.531Z,55.13
2022-10-14T07:18:08.538Z,48.57
2022-10-14T07:19:08.541Z,55.44
2022-10-14T07:20:08.538Z,53.74
2022-10-14T07:21:08.506Z,55.23
2022-10-14T07:22:08.507Z,57.24
2022-10-14T07:23:08.497Z,61.75
2022-10-14T07:24:08.484Z,54.63
2022-10-14T07:25:08.506Z,55.03
2022-10-14T07:26:08.464Z,53.51
2022-10-14T07:27:08.458Z,54.15
2022-10-14T07:28:08.449Z,53.99
2022-10-14T07:29:08.441Z,54.55
2022-10-14T07:30:09.301Z,57.00
2022-10-14T07:31:08.433Z,58.83
2022-10-14T07:32:08.422Z,55.08
2022-10-14T07:33:08.423Z,49.57
2022-10-14T07:34:08.425Z,57.57
2022-10-14T07:35:08.427Z,56.99
2022-10-14T07:36:08.396Z,53.75
2022-10-14T07:37:08.388Z,57.30
2022-10-14T07:38:08.374Z,58.11
2022-10-14T07:39:08.368Z,52.97
2022-10-14T07:40:08.400Z,58.55
2022-10-14T07:41:08.356Z,57.32
2022-10-14T07:42:08.414Z,56.67
2022-10-14T07:43:08.338Z,56.85
2022-10-14T07:44:08.334Z,51.69
2022-10-14T07:45:08.348Z,61.93
2022-10-14T07:46:08.486Z,55.89
2022-10-14T07:47:08.310Z,57.44
2022-10-14T07:48:08.304Z,54.55
2022-10-14T07:49:08.296Z,60.72
2022-10-14T07:50:08.326Z,61.05
2022-10-14T07:51:08.286Z,57.05
2022-10-14T07:52:08.275Z,58.05
2022-10-14T07:53:08.271Z,57.85
2022-10-14T07:54:08.259Z,58.64
2022-10-14T07:55:08.289Z,57.13
2022-10-14T07:56:08.293Z,57.61
2022-10-14T07:57:08.243Z,52.56
2022-10-14T07:58:08.226Z,55.25
2022-10-14T07:59:08.219Z,54.48
2022-10-14T08:00:08.255Z,54.48
2022-10-14T08:01:08.209Z,53.74
2022-10-14T08:02:08.241Z,52.74
2022-10-14T08:03:08.214Z,55.54
2022-10-14T08:04:08.177Z,53.41
2022-10-14T08:06:10.180Z,57.99
2022-10-14T08:07:08.158Z,60.39
2022-10-14T08:08:08.151Z,59.80
2022-10-14T08:09:08.142Z,58.27
2022-10-14T08:10:08.158Z,55.32
2022-10-14T08:11:08.157Z,55.28
2022-10-14T08:12:08.112Z,57.21
2022-10-14T08:13:09.114Z,55.68
2022-10-14T08:14:08.112Z,56.07
2022-10-14T08:15:08.101Z,54.67
2022-10-14T08:16:08.130Z,55.14
2022-10-14T08:17:08.081Z,52.04
2022-10-14T08:18:08.080Z,57.38
2022-10-14T08:19:13.482Z,49.77
2022-10-14T08:20:10.126Z,55.41
2022-10-14T08:21:08.080Z,55.21
2022-10-14T08:22:08.043Z,56.44
2022-10-14T08:23:09.043Z,58.50
2022-10-14T08:24:08.036Z,58.50
2022-10-14T08:25:08.026Z,58.50
2022-10-14T08:26:08.064Z,52.97
2022-10-14T08:27:08.025Z,54.96
2022-10-14T08:28:08.006Z,55.27
2022-10-14T08:29:07.995Z,52.28
2022-10-14T08:30:11.072Z,55.46
2022-10-14T08:31:08.009Z,54.19
2022-10-14T08:32:07.970Z,52.84
2022-10-14T08:33:07.966Z,58.67
2022-10-14T08:34:07.965Z,58.15
2022-10-14T08:35:07.954Z,58.59
2022-10-14T08:36:07.969Z,57.90
2022-10-14T08:37:07.945Z,55.55
2022-10-14T08:38:07.932Z,55.27
2022-10-14T08:39:07.926Z,55.66
2022-10-14T08:40:07.913Z,57.96
2022-10-14T08:41:07.928Z,53.88
2022-10-14T08:42:07.894Z,58.53
2022-10-14T08:43:07.887Z,53.49
2022-10-14T08:44:07.880Z,55.12
2022-10-14T08:45:07.878Z,54.03
2022-10-14T08:46:07.903Z,54.45
2022-10-14T08:47:07.862Z,62.65
2022-10-14T08:48:07.855Z,58.08
2022-10-14T08:49:07.845Z,54.71
2022-10-14T08:50:07.838Z,56.47
2022-10-14T08:51:07.856Z,62.12
2022-10-14T08:52:07.820Z,57.08
2022-10-14T08:53:07.818Z,57.25
2022-10-14T08:54:07.817Z,60.33
2022-10-14T08:55:07.794Z,55.12
2022-10-14T08:56:07.815Z,56.56
2022-10-14T08:57:07.863Z,56.46
2022-10-14T08:58:10.534Z,55.65
2022-10-14T08:59:07.762Z,55.50
2022-10-14T09:00:08.757Z,55.54
2022-10-14T09:01:09.931Z,57.31
2022-10-14T09:02:09.745Z,54.81
2022-10-14T09:03:07.766Z,55.81
2022-10-14T09:04:07.793Z,56.08
2022-10-14T09:05:07.728Z,55.58
2022-10-14T09:06:07.800Z,53.55
2022-10-14T09:07:07.710Z,56.76
2022-10-14T09:08:07.708Z,55.72
2022-10-14T09:09:07.696Z,53.80
2022-10-14T09:10:07.675Z,53.16
2022-10-14T09:11:08.716Z,61.10
2022-10-14T09:12:07.669Z,55.77
2022-10-14T09:13:07.696Z,54.31
2022-10-14T09:14:07.655Z,55.63
2022-10-14T09:15:07.647Z,54.80
2022-10-14T09:16:07.680Z,56.58
2022-10-14T09:17:07.675Z,55.75
2022-10-14T09:18:07.640Z,59.78
2022-10-14T09:19:07.618Z,59.28
2022-10-14T09:20:07.656Z,54.75
2022-10-14T09:21:07.602Z,55.07
2022-10-14T09:22:07.624Z,61.15
2022-10-14T09:23:07.583Z,58.48
2022-10-14T09:24:07.581Z,54.99
2022-10-14T09:25:07.575Z,60.44
2022-10-14T09:26:07.570Z,57.58
2022-10-14T09:27:07.591Z,56.12
2022-10-14T09:28:07.573Z,57.89
2022-10-14T09:29:07.545Z,60.52
2022-10-14T09:30:07.532Z,56.15
2022-10-14T09:31:07.529Z,58.78
2022-10-14T09:32:07.565Z,60.97
2022-10-14T09:33:07.518Z,57.41
2022-10-14T09:34:07.509Z,55.52
2022-10-14T09:35:07.504Z,57.09
2022-10-14T09:36:07.498Z,59.03
2022-10-14T09:37:08.513Z,54.60
2022-10-14T09:38:07.479Z,58.88
2022-10-14T09:39:07.476Z,54.66
2022-10-14T09:40:07.462Z,57.10
2022-10-14T09:41:07.455Z,60.72
2022-10-14T09:42:07.472Z,56.06
2022-10-14T09:43:07.473Z,56.14
2022-10-14T09:44:07.433Z,56.41
2022-10-14T09:46:08.419Z,57.58
2022-10-14T09:47:09.445Z,56.10
2022-10-14T09:48:07.397Z,60.03
2022-10-14T09:49:07.395Z,57.22
2022-10-14T09:50:07.389Z,58.21
2022-10-14T09:51:07.381Z,54.77
2022-10-14T09:52:07.413Z,56.59
2022-10-14T09:53:10.845Z,55.70
2022-10-14T09:55:07.353Z,55.83
2022-10-14T09:56:07.350Z,57.09
2022-10-14T09:57:07.363Z,48.63
2022-10-14T09:58:07.318Z,53.91
2022-10-14T09:59:07.317Z,53.02
2022-10-14T10:00:07.306Z,56.70
2022-10-14T10:01:07.336Z,57.25
2022-10-14T10:02:07.327Z,57.37
2022-10-14T10:03:07.278Z,58.48
2022-10-14T10:04:07.452Z,56.44
2022-10-14T10:05:07.270Z,57.29
2022-10-14T10:06:07.256Z,52.87
2022-10-14T10:07:07.291Z,54.51
2022-10-14T10:08:07.254Z,58.63
2022-10-14T10:09:40.113Z,57.29
2022-10-14T10:10:07.227Z,59.43
2022-10-14T10:11:07.362Z,56.90
2022-10-14T10:12:07.253Z,57.29
2022-10-14T10:13:07.231Z,61.53
2022-10-14T10:14:07.201Z,55.94
2022-10-14T10:15:07.190Z,50.38
2022-10-14T10:16:07.182Z,55.64
2022-10-14T10:17:07.201Z,56.37
2022-10-14T10:18:07.165Z,57.32
2022-10-14T10:19:07.156Z,56.05
2022-10-14T10:20:07.153Z,54.68
2022-10-14T10:21:07.146Z,58.06
2022-10-14T10:22:07.169Z,55.82
2022-10-14T10:23:07.160Z,57.78
2022-10-14T10:24:07.116Z,52.35
2022-10-14T10:25:07.110Z,57.09
2022-10-14T10:26:07.103Z,53.29
2022-10-14T10:27:07.094Z,55.49
2022-10-14T10:28:07.112Z,58.85
2022-10-14T10:29:07.073Z,57.20
2022-10-14T10:30:07.071Z,58.48
2022-10-14T10:31:07.062Z,55.46
2022-10-14T10:32:07.059Z,55.29
2022-10-14T10:33:07.074Z,59.14
2022-10-14T10:34:07.056Z,55.46
2022-10-14T10:35:07.031Z,55.87
2022-10-14T10:36:07.076Z,58.13
2022-10-14T10:37:07.018Z,55.30
2022-10-14T10:38:07.032Z,57.22
2022-10-14T10:39:06.998Z,59.92
2022-10-14T10:40:07.000Z,55.88
2022-10-14T10:41:06.981Z,56.05
2022-10-14T10:42:06.998Z,57.42
2022-10-14T10:43:07.001Z,59.74
2022-10-14T10:44:06.959Z,54.78
2022-10-14T10:45:06.957Z,54.00
2022-10-14T10:46:06.956Z,56.81
2022-10-14T10:47:06.943Z,55.90
2022-10-14T10:48:06.971Z,58.27
2022-10-14T10:49:06.918Z,55.27
2022-10-14T10:50:06.923Z,56.20
2022-10-14T10:51:06.910Z,46.86
2022-10-14T10:52:06.904Z,57.82
2022-10-14T10:53:06.916Z,55.92
2022-10-14T10:54:06.929Z,58.79
2022-10-14T10:55:06.873Z,55.71
2022-10-14T10:56:06.872Z,58.94
2022-10-14T10:57:06.868Z,55.71
2022-10-14T10:58:09.077Z,55.22
2022-10-14T10:59:06.878Z,57.99
2022-10-14T11:00:06.838Z,52.20
2022-10-14T11:01:06.871Z,60.58
2022-10-14T11:02:06.828Z,57.17
2022-10-14T11:03:06.843Z,56.30
2022-10-14T11:04:06.807Z,56.15
2022-10-14T11:05:06.797Z,59.04
2022-10-14T11:06:06.788Z,55.47
2022-10-14T11:07:06.783Z,57.24
2022-10-14T11:08:06.806Z,59.85
2022-10-14T11:09:06.769Z,57.67
2022-10-14T11:10:06.762Z,57.56
2022-10-14T11:11:06.749Z,59.22
2022-10-14T11:12:06.742Z,57.27
2022-10-14T11:13:06.770Z,57.16
2022-10-14T11:14:06.728Z,57.72
2022-10-14T11:15:06.757Z,59.14
2022-10-14T11:16:06.715Z,57.69
2022-10-14T11:17:06.711Z,57.88
2022-10-14T11:18:06.722Z,54.47
2022-10-14T11:19:09.718Z,57.38
2022-10-14T11:20:07.692Z,57.90
2022-10-14T11:21:06.672Z,57.80
2022-10-14T11:22:06.669Z,57.79
2022-10-14T11:23:06.684Z,60.62
2022-10-14T11:24:06.735Z,56.57
2022-10-14T11:25:06.649Z,58.40
2022-10-14T11:26:06.645Z,59.08
2022-10-14T11:27:06.629Z,55.82
2022-10-14T11:28:06.646Z,56.62
2022-10-14T11:29:06.624Z,59.16
2022-10-14T11:30:06.611Z,54.70
2022-10-14T11:31:06.605Z,58.40
2022-10-14T11:32:06.595Z,59.56
2022-10-14T11:33:06.616Z,56.06
2022-10-14T11:34:06.584Z,56.96
2022-10-14T11:35:06.567Z,58.28
2022-10-14T11:36:06.571Z,57.13
2022-10-14T11:37:06.551Z,57.70
2022-10-14T11:38:06.580Z,57.96
2022-10-14T11:39:06.538Z,55.68
2022-10-14T11:40:06.536Z,54.73
2022-10-14T11:41:06.525Z,58.33
2022-10-14T11:42:06.571Z,58.67
2022-10-14T11:43:06.508Z,54.70
2022-10-14T11:44:06.527Z,55.05
2022-10-14T11:45:06.496Z,57.17
2022-10-14T11:46:06.481Z,60.48
2022-10-14T11:47:06.478Z,55.47
2022-10-14T11:48:06.477Z,57.09
2022-10-14T11:49:06.493Z,47.79
2022-10-14T11:50:06.458Z,52.32
2022-10-14T11:51:06.461Z,57.91
2022-10-14T11:52:06.441Z,57.70
2022-10-14T11:53:06.435Z,58.52
2022-10-14T11:54:06.453Z,56.48
2022-10-14T11:55:09.678Z,54.79
2022-10-14T11:56:07.430Z,60.63
2022-10-14T11:57:06.408Z,55.00
2022-10-14T11:58:06.402Z,56.94
2022-10-14T11:59:06.417Z,53.66
2022-10-14T12:00:06.373Z,59.43
2022-10-14T12:01:06.381Z,55.47
2022-10-14T12:02:06.424Z,57.82
2022-10-14T12:03:06.433Z,56.70
2022-10-14T12:04:06.388Z,55.35
2022-10-14T12:05:06.343Z,56.05
2022-10-14T12:06:06.356Z,55.74
2022-10-14T12:07:06.318Z,60.65
2022-10-14T12:08:06.332Z,56.54
2022-10-14T12:09:06.331Z,55.70
2022-10-14T12:10:06.312Z,56.16
2022-10-14T12:11:06.320Z,57.14
2022-10-14T12:12:06.289Z,57.55
2022-10-14T12:13:06.311Z,58.48
2022-10-14T12:14:06.273Z,56.03
2022-10-14T12:15:06.258Z,55.63
2022-10-14T12:16:06.248Z,55.55
2022-10-14T12:17:06.275Z,59.37
2022-10-14T12:18:06.271Z,59.18
2022-10-14T12:19:06.269Z,58.17
2022-10-14T12:20:06.250Z,60.18
2022-10-14T12:21:06.226Z,57.80
2022-10-14T12:22:06.223Z,58.27
2022-10-14T12:23:06.224Z,58.46
2022-10-14T12:24:06.239Z,55.82
2022-10-14T12:25:06.184Z,61.77
2022-10-14T12:26:06.172Z,57.46
2022-10-14T12:27:06.167Z,57.63
2022-10-14T12:28:06.163Z,57.34
2022-10-14T12:29:06.210Z,58.80
2022-10-14T12:30:06.143Z,52.07
2022-10-14T12:31:06.144Z,56.93
2022-10-14T12:32:06.135Z,57.51
2022-10-14T12:33:06.136Z,57.04
2022-10-14T12:34:06.151Z,60.80
2022-10-14T12:35:06.108Z,53.35
2022-10-14T12:36:06.107Z,55.75
2022-10-14T12:37:06.098Z,56.50
2022-10-14T12:38:06.094Z,57.17
2022-10-14T12:39:06.114Z,59.47
2022-10-14T12:40:06.093Z,55.45
2022-10-14T12:41:06.070Z,57.40
2022-10-14T12:42:06.080Z,57.51
2022-10-14T12:43:06.050Z,61.54
2022-10-14T12:44:06.075Z,60.37
2022-10-14T12:45:06.036Z,57.10
2022-10-14T12:46:06.030Z,59.69
2022-10-14T12:47:06.021Z,57.75
2022-10-14T12:48:06.020Z,59.53
2022-10-14T12:49:06.028Z,57.15
2022-10-14T12:50:06.006Z,55.20
2022-10-14T12:51:05.996Z,59.01
2022-10-14T12:52:05.985Z,58.69
2022-10-14T12:53:06.015Z,58.62
2022-10-14T12:54:05.992Z,57.93
2022-10-14T12:55:05.964Z,56.84